createdAt,value
2017-03-29T00:00:26.761Z,1016.19
2017-03-29T00:02:05.227Z,1016.21
2017-03-29T00:02:46.196Z,1016.2
2017-03-29T00:03:27.136Z,1016.23
2017-03-29T00:04:08.040Z,1016.24
2017-03-29T00:04:48.934Z,1016.19
2017-03-29T00:05:29.914Z,1016.24
2017-03-29T00:06:10.869Z,1016.24
2017-03-29T00:06:51.780Z,1016.24
2017-03-29T00:07:32.689Z,1016.25
2017-03-29T00:08:13.630Z,1016.28
2017-03-29T00:10:23.649Z,1016.26
2017-03-29T00:12:22.670Z,1016.26
2017-03-29T00:14:01.266Z,1016.27
2017-03-29T00:14:42.475Z,1016.23
2017-03-29T00:15:23.579Z,1016.26
2017-03-29T00:17:17.345Z,1016.32
2017-03-29T00:17:58.367Z,1016.3
2017-03-29T00:19:52.937Z,1016.34
2017-03-29T00:20:33.825Z,1016.3
2017-03-29T00:21:14.708Z,1016.3
2017-03-29T00:21:55.581Z,1016.32
2017-03-29T00:22:36.468Z,1016.33
2017-03-29T00:23:17.387Z,1016.35
2017-03-29T00:23:58.272Z,1016.32
2017-03-29T00:24:39.161Z,1016.32
2017-03-29T00:25:20.050Z,1016.33
2017-03-29T00:26:00.936Z,1016.33
2017-03-29T00:26:41.817Z,1016.31
2017-03-29T00:27:22.710Z,1016.31
2017-03-29T00:28:03.604Z,1016.25
2017-03-29T00:28:44.483Z,1016.28
2017-03-29T00:29:25.373Z,1016.25
2017-03-29T00:30:06.261Z,1016.3
2017-03-29T00:30:47.141Z,1016.28
2017-03-29T00:31:28.027Z,1016.28
2017-03-29T00:32:08.919Z,1016.31
2017-03-29T00:32:49.799Z,1016.3
2017-03-29T00:33:30.680Z,1016.33
2017-03-29T00:34:11.568Z,1016.34
2017-03-29T00:34:52.476Z,1016.3
2017-03-29T00:35:33.364Z,1016.32
2017-03-29T00:36:14.255Z,1016.33
2017-03-29T00:36:55.141Z,1016.34
2017-03-29T00:37:36.028Z,1016.39
2017-03-29T00:38:16.917Z,1016.39
2017-03-29T00:38:57.800Z,1016.4
2017-03-29T00:39:38.685Z,1016.4
2017-03-29T00:40:19.572Z,1016.38
2017-03-29T00:41:00.462Z,1016.38
2017-03-29T00:41:41.348Z,1016.42
2017-03-29T00:42:22.235Z,1016.46
2017-03-29T00:43:03.125Z,1016.4
2017-03-29T00:43:44.013Z,1016.46
2017-03-29T00:44:24.895Z,1016.42
2017-03-29T00:45:05.801Z,1016.45
2017-03-29T00:45:46.681Z,1016.39
2017-03-29T00:46:27.562Z,1016.35
2017-03-29T00:47:08.443Z,1016.37
2017-03-29T00:47:49.331Z,1016.39
2017-03-29T00:48:30.216Z,1016.37
2017-03-29T00:49:11.101Z,1016.44
2017-03-29T00:49:51.986Z,1016.42
2017-03-29T00:50:32.871Z,1016.44
2017-03-29T00:51:13.754Z,1016.42
2017-03-29T00:51:54.639Z,1016.46
2017-03-29T00:52:35.538Z,1016.47
2017-03-29T00:53:16.430Z,1016.46
2017-03-29T00:53:57.310Z,1016.43
2017-03-29T00:54:38.194Z,1016.49
2017-03-29T00:55:19.085Z,1016.47
2017-03-29T00:55:59.973Z,1016.49
2017-03-29T00:56:40.856Z,1016.46
2017-03-29T00:57:21.744Z,1016.44
2017-03-29T00:58:02.634Z,1016.48
2017-03-29T00:58:43.522Z,1016.51
2017-03-29T00:59:24.404Z,1016.43
2017-03-29T01:00:05.294Z,1016.52
2017-03-29T01:00:46.181Z,1016.54
2017-03-29T01:01:27.064Z,1016.5
2017-03-29T01:02:07.951Z,1016.44
2017-03-29T01:02:48.841Z,1016.42
2017-03-29T01:03:29.722Z,1016.43
2017-03-29T01:04:10.604Z,1016.45
2017-03-29T01:04:51.492Z,1016.38
2017-03-29T01:05:32.389Z,1016.38
2017-03-29T01:06:13.276Z,1016.35
2017-03-29T01:06:54.165Z,1016.37
2017-03-29T01:07:35.066Z,1016.36
2017-03-29T01:08:15.950Z,1016.34
2017-03-29T01:08:56.869Z,1016.32
2017-03-29T01:09:37.756Z,1016.33
2017-03-29T01:10:18.649Z,1016.29
2017-03-29T01:10:59.535Z,1016.3
2017-03-29T01:11:40.418Z,1016.3
2017-03-29T01:12:21.301Z,1016.3
2017-03-29T01:13:02.176Z,1016.29
2017-03-29T01:13:43.063Z,1016.26
2017-03-29T01:14:23.950Z,1016.24
2017-03-29T01:15:04.835Z,1016.23
2017-03-29T01:15:45.721Z,1016.26
2017-03-29T01:16:26.613Z,1016.24
2017-03-29T01:17:07.497Z,1016.24
2017-03-29T01:17:48.383Z,1016.23
2017-03-29T01:18:29.268Z,1016.24
2017-03-29T01:19:10.154Z,1016.18
2017-03-29T01:19:51.036Z,1016.22
2017-03-29T01:20:31.919Z,1016.19
2017-03-29T01:21:12.808Z,1016.18
2017-03-29T01:21:53.694Z,1016.18
2017-03-29T01:22:34.579Z,1016.2
2017-03-29T01:23:15.466Z,1016.22
2017-03-29T01:23:56.351Z,1016.18
2017-03-29T01:24:37.235Z,1016.17
2017-03-29T01:25:18.114Z,1016.2
2017-03-29T01:25:59.019Z,1016.22
2017-03-29T01:26:39.901Z,1016.22
2017-03-29T01:27:20.783Z,1016.2
2017-03-29T01:28:01.659Z,1016.2
2017-03-29T01:28:42.546Z,1016.19
2017-03-29T01:29:23.435Z,1016.22
2017-03-29T01:30:04.321Z,1016.23
2017-03-29T01:30:45.209Z,1016.18
2017-03-29T01:31:26.095Z,1016.18
2017-03-29T01:32:06.982Z,1016.17
2017-03-29T01:32:47.863Z,1016.21
2017-03-29T01:33:28.749Z,1016.19
2017-03-29T01:34:09.645Z,1016.17
2017-03-29T01:34:50.526Z,1016.15
2017-03-29T01:35:31.404Z,1016.17
2017-03-29T01:36:12.288Z,1016.11
2017-03-29T01:36:53.174Z,1016.12
2017-03-29T01:37:34.059Z,1016.13
2017-03-29T01:38:14.948Z,1016.12
2017-03-29T01:38:55.833Z,1016.15
2017-03-29T01:39:36.728Z,1016.1
2017-03-29T01:40:17.615Z,1016.1
2017-03-29T01:40:58.510Z,1016.08
2017-03-29T01:41:39.401Z,1016.09
2017-03-29T01:42:20.279Z,1016.14
2017-03-29T01:43:01.167Z,1016.06
2017-03-29T01:43:42.056Z,1016.03
2017-03-29T01:44:22.936Z,1016.07
2017-03-29T01:45:03.823Z,1016.1
2017-03-29T01:45:44.715Z,1016.06
2017-03-29T01:46:25.600Z,1016.05
2017-03-29T01:47:06.479Z,1016.06
2017-03-29T01:47:47.363Z,1016.09
2017-03-29T01:48:28.251Z,1016.08
2017-03-29T01:49:09.135Z,1016.08
2017-03-29T01:49:50.014Z,1016.07
2017-03-29T01:50:30.897Z,1016.12
2017-03-29T01:51:11.796Z,1016.1
2017-03-29T01:51:52.691Z,1016.09
2017-03-29T01:52:33.554Z,1016.05
2017-03-29T01:53:14.442Z,1016.05
2017-03-29T01:53:55.356Z,1016.02
2017-03-29T01:54:36.222Z,1016.01
2017-03-29T01:55:17.107Z,1016.04
2017-03-29T01:55:57.995Z,1016.04
2017-03-29T01:56:38.883Z,1016.02
2017-03-29T01:57:19.763Z,1016.04
2017-03-29T01:58:00.650Z,1016.05
2017-03-29T01:58:41.540Z,1016.02
2017-03-29T01:59:22.428Z,1016.05
2017-03-29T02:00:03.320Z,1016.03
2017-03-29T02:00:44.201Z,1016.05
2017-03-29T02:01:25.093Z,1016.02
2017-03-29T02:02:05.986Z,1016.04
2017-03-29T02:02:46.858Z,1016.04
2017-03-29T02:03:27.744Z,1016.1
2017-03-29T02:04:08.639Z,1016.12
2017-03-29T02:04:49.524Z,1016.11
2017-03-29T02:05:30.409Z,1016.17
2017-03-29T02:06:11.303Z,1016.13
2017-03-29T02:06:52.187Z,1016.15
2017-03-29T02:07:33.075Z,1016.17
2017-03-29T02:08:13.962Z,1016.16
2017-03-29T02:08:54.845Z,1016.16
2017-03-29T02:09:35.737Z,1016.14
2017-03-29T02:10:16.620Z,1016.12
2017-03-29T02:10:57.965Z,1016.16
2017-03-29T02:11:38.847Z,1016.16
2017-03-29T02:12:19.730Z,1016.15
2017-03-29T02:13:00.612Z,1016.12
2017-03-29T02:13:41.511Z,1016.1
2017-03-29T02:14:22.394Z,1016.12
2017-03-29T02:15:03.275Z,1016.13
2017-03-29T02:15:44.160Z,1016.16
2017-03-29T02:16:25.049Z,1016.14
2017-03-29T02:17:05.932Z,1016.18
2017-03-29T02:17:46.814Z,1016.17
2017-03-29T02:18:27.682Z,1016.18
2017-03-29T02:19:08.568Z,1016.19
2017-03-29T02:19:49.456Z,1016.19
2017-03-29T02:20:30.332Z,1016.18
2017-03-29T02:21:11.213Z,1016.21
2017-03-29T02:21:52.106Z,1016.19
2017-03-29T02:22:32.997Z,1016.24
2017-03-29T02:23:13.875Z,1016.21
2017-03-29T02:23:54.752Z,1016.22
2017-03-29T02:24:35.638Z,1016.24
2017-03-29T02:25:16.512Z,1016.24
2017-03-29T02:25:57.395Z,1016.26
2017-03-29T02:26:38.278Z,1016.28
2017-03-29T02:27:19.157Z,1016.28
2017-03-29T02:28:00.046Z,1016.26
2017-03-29T02:28:40.929Z,1016.28
2017-03-29T02:29:21.812Z,1016.29
2017-03-29T02:30:02.697Z,1016.29
2017-03-29T02:30:43.589Z,1016.3
2017-03-29T02:31:24.496Z,1016.35
2017-03-29T02:32:05.381Z,1016.33
2017-03-29T02:32:46.963Z,1016.34
2017-03-29T02:33:27.871Z,1016.3
2017-03-29T02:34:08.748Z,1016.32
2017-03-29T02:34:49.637Z,1016.29
2017-03-29T02:35:30.521Z,1016.3
2017-03-29T02:36:11.403Z,1016.29
2017-03-29T02:36:52.283Z,1016.28
2017-03-29T02:37:33.174Z,1016.21
2017-03-29T02:38:14.075Z,1016.23
2017-03-29T02:38:54.956Z,1016.2
2017-03-29T02:39:35.838Z,1016.19
2017-03-29T02:40:16.728Z,1016.2
2017-03-29T02:40:57.610Z,1016.19
2017-03-29T02:41:38.491Z,1016.18
2017-03-29T02:42:19.382Z,1016.21
2017-03-29T02:43:00.271Z,1016.2
2017-03-29T02:43:41.154Z,1016.14
2017-03-29T02:44:22.039Z,1016.13
2017-03-29T02:45:02.918Z,1016.14
2017-03-29T02:45:43.807Z,1016.12
2017-03-29T02:46:24.685Z,1016.12
2017-03-29T02:47:05.561Z,1016.11
2017-03-29T02:47:46.448Z,1016.11
2017-03-29T02:48:27.336Z,1016.12
2017-03-29T02:49:08.219Z,1016.14
2017-03-29T02:49:49.107Z,1016.17
2017-03-29T02:50:29.994Z,1016.15
2017-03-29T02:51:10.884Z,1016.14
2017-03-29T02:51:51.764Z,1016.15
2017-03-29T02:52:32.648Z,1016.16
2017-03-29T02:53:13.534Z,1016.16
2017-03-29T02:53:54.418Z,1016.14
2017-03-29T02:54:35.299Z,1016.12
2017-03-29T02:55:16.188Z,1016.11
2017-03-29T02:55:57.074Z,1016.1
2017-03-29T02:56:37.963Z,1016.07
2017-03-29T02:57:18.848Z,1016.05
2017-03-29T02:58:00.469Z,1016.02
2017-03-29T02:58:41.356Z,1015.99
2017-03-29T02:59:22.241Z,1015.99
2017-03-29T03:00:03.128Z,1015.96
2017-03-29T03:00:44.007Z,1015.95
2017-03-29T03:01:24.885Z,1015.97
2017-03-29T03:02:05.775Z,1015.96
2017-03-29T03:02:46.665Z,1015.97
2017-03-29T03:03:27.558Z,1015.97
2017-03-29T03:04:08.446Z,1015.97
2017-03-29T03:04:49.333Z,1015.96
2017-03-29T03:05:30.218Z,1015.99
2017-03-29T03:06:11.101Z,1015.99
2017-03-29T03:06:51.983Z,1016.01
2017-03-29T03:07:32.872Z,1016
2017-03-29T03:08:13.769Z,1016
2017-03-29T03:08:54.653Z,1016.01
2017-03-29T03:09:35.543Z,1015.96
2017-03-29T03:10:16.422Z,1015.96
2017-03-29T03:10:57.298Z,1015.98
2017-03-29T03:11:38.168Z,1016.01
2017-03-29T03:12:19.055Z,1015.97
2017-03-29T03:12:59.942Z,1015.96
2017-03-29T03:13:40.826Z,1016.01
2017-03-29T03:14:21.701Z,1015.95
2017-03-29T03:15:02.584Z,1015.94
2017-03-29T03:15:43.474Z,1015.94
2017-03-29T03:16:24.402Z,1015.89
2017-03-29T03:17:05.293Z,1015.9
2017-03-29T03:17:46.180Z,1015.91
2017-03-29T03:18:27.066Z,1015.89
2017-03-29T03:19:07.960Z,1015.9
2017-03-29T03:19:48.846Z,1015.89
2017-03-29T03:20:29.721Z,1015.92
2017-03-29T03:21:10.611Z,1015.91
2017-03-29T03:21:51.491Z,1015.92
2017-03-29T03:22:32.363Z,1015.92
2017-03-29T03:23:13.246Z,1015.9
2017-03-29T03:23:54.115Z,1015.93
2017-03-29T03:24:35.002Z,1015.89
2017-03-29T03:25:15.891Z,1015.89
2017-03-29T03:25:56.776Z,1015.89
2017-03-29T03:26:37.655Z,1015.87
2017-03-29T03:27:18.531Z,1015.85
2017-03-29T03:27:59.427Z,1015.85
2017-03-29T03:28:40.310Z,1015.85
2017-03-29T03:29:21.178Z,1015.82
2017-03-29T03:30:02.068Z,1015.81
2017-03-29T03:30:42.950Z,1015.85
2017-03-29T03:31:23.832Z,1015.86
2017-03-29T03:32:04.715Z,1015.86
2017-03-29T03:32:45.597Z,1015.84
2017-03-29T03:33:26.495Z,1015.87
2017-03-29T03:34:07.382Z,1015.84
2017-03-29T03:34:48.260Z,1015.87
2017-03-29T03:35:29.158Z,1015.84
2017-03-29T03:36:10.045Z,1015.87
2017-03-29T03:36:50.936Z,1015.86
2017-03-29T03:37:31.826Z,1015.83
2017-03-29T03:38:12.708Z,1015.87
2017-03-29T03:38:53.587Z,1015.85
2017-03-29T03:39:34.466Z,1015.93
2017-03-29T03:40:15.364Z,1015.86
2017-03-29T03:40:56.262Z,1015.92
2017-03-29T03:41:37.122Z,1015.87
2017-03-29T03:42:18.004Z,1015.85
2017-03-29T03:42:58.895Z,1015.86
2017-03-29T03:43:39.781Z,1015.85
2017-03-29T03:44:20.661Z,1015.88
2017-03-29T03:45:01.555Z,1015.89
2017-03-29T03:45:42.441Z,1015.86
2017-03-29T03:46:23.333Z,1015.88
2017-03-29T03:47:04.227Z,1015.89
2017-03-29T03:47:45.117Z,1015.89
2017-03-29T03:48:26.003Z,1015.91
2017-03-29T03:49:06.885Z,1015.93
2017-03-29T03:49:47.768Z,1015.96
2017-03-29T03:50:28.649Z,1015.93
2017-03-29T03:51:09.534Z,1015.99
2017-03-29T03:51:50.409Z,1015.98
2017-03-29T03:52:31.292Z,1016.02
2017-03-29T03:53:12.174Z,1015.98
2017-03-29T03:53:53.058Z,1016.05
2017-03-29T03:54:33.945Z,1016.03
2017-03-29T03:55:14.824Z,1016.05
2017-03-29T03:55:55.713Z,1016.05
2017-03-29T03:56:36.596Z,1016.05
2017-03-29T03:57:17.477Z,1016.01
2017-03-29T03:57:58.361Z,1015.98
2017-03-29T03:58:39.248Z,1015.98
2017-03-29T03:59:20.136Z,1015.97
2017-03-29T04:00:01.016Z,1016
2017-03-29T04:00:41.901Z,1016.04
2017-03-29T04:01:22.784Z,1016
2017-03-29T04:02:03.668Z,1016.04
2017-03-29T04:02:44.554Z,1016.01
2017-03-29T04:03:25.452Z,1016
2017-03-29T04:04:06.345Z,1015.99
2017-03-29T04:04:47.219Z,1015.95
2017-03-29T04:05:28.103Z,1015.95
2017-03-29T04:06:08.991Z,1015.97
2017-03-29T04:06:49.877Z,1015.97
2017-03-29T04:07:30.757Z,1015.98
2017-03-29T04:08:11.636Z,1015.96
2017-03-29T04:08:52.527Z,1015.94
2017-03-29T04:09:33.410Z,1015.97
2017-03-29T04:10:14.285Z,1015.96
2017-03-29T04:10:55.169Z,1015.98
2017-03-29T04:11:36.061Z,1016.03
2017-03-29T04:12:16.944Z,1016.05
2017-03-29T04:12:57.825Z,1016.02
2017-03-29T04:13:38.711Z,1016.05
2017-03-29T04:14:19.596Z,1016.06
2017-03-29T04:15:00.477Z,1016.11
2017-03-29T04:15:41.350Z,1016.07
2017-03-29T04:16:22.253Z,1016.13
2017-03-29T04:17:03.120Z,1016.1
2017-03-29T04:17:44.002Z,1016.11
2017-03-29T04:18:24.875Z,1016.13
2017-03-29T04:19:05.765Z,1016.08
2017-03-29T04:19:46.651Z,1016.08
2017-03-29T04:20:27.533Z,1016.06
2017-03-29T04:21:08.417Z,1016.07
2017-03-29T04:21:49.303Z,1016.04
2017-03-29T04:22:30.197Z,1016.01
2017-03-29T04:23:11.079Z,1016.03
2017-03-29T04:23:51.953Z,1016.01
2017-03-29T04:24:32.840Z,1016
2017-03-29T04:25:13.730Z,1015.97
2017-03-29T04:25:54.620Z,1015.95
2017-03-29T04:26:35.495Z,1015.98
2017-03-29T04:27:16.395Z,1015.98
2017-03-29T04:27:57.288Z,1015.97
2017-03-29T04:28:38.162Z,1015.97
2017-03-29T04:29:19.053Z,1016
2017-03-29T04:29:59.944Z,1016.04
2017-03-29T04:30:40.829Z,1016
2017-03-29T04:31:21.719Z,1015.99
2017-03-29T04:32:02.621Z,1016
2017-03-29T04:32:43.503Z,1016.02
2017-03-29T04:33:24.392Z,1015.99
2017-03-29T04:34:05.279Z,1016.02
2017-03-29T04:34:46.164Z,1015.99
2017-03-29T04:35:27.044Z,1016.07
2017-03-29T04:36:07.928Z,1016
2017-03-29T04:36:48.819Z,1016.02
2017-03-29T04:37:29.702Z,1015.96
2017-03-29T04:38:10.585Z,1015.95
2017-03-29T04:38:51.464Z,1015.96
2017-03-29T04:39:32.352Z,1016.01
2017-03-29T04:40:13.238Z,1016
2017-03-29T04:40:54.122Z,1015.97
2017-03-29T04:41:35.005Z,1015.99
2017-03-29T04:42:15.888Z,1016
2017-03-29T04:42:56.773Z,1016.02
2017-03-29T04:43:37.657Z,1015.97
2017-03-29T04:44:18.543Z,1015.97
2017-03-29T04:44:59.430Z,1016
2017-03-29T04:45:40.338Z,1016
2017-03-29T04:46:21.189Z,1016.01
2017-03-29T04:47:02.059Z,1015.96
2017-03-29T04:47:42.945Z,1015.95
2017-03-29T04:48:23.860Z,1015.95
2017-03-29T04:50:22.729Z,1015.96
2017-03-29T04:51:03.688Z,1015.92
2017-03-29T04:51:44.659Z,1015.87
2017-03-29T04:52:25.632Z,1015.92
2017-03-29T04:53:06.588Z,1015.94
2017-03-29T04:53:47.449Z,1015.96
2017-03-29T04:54:28.331Z,1015.97
2017-03-29T04:55:09.210Z,1015.98
2017-03-29T04:55:50.086Z,1016.01
2017-03-29T04:56:30.973Z,1016.06
2017-03-29T04:57:11.854Z,1016.06
2017-03-29T04:57:52.737Z,1016.03
2017-03-29T04:58:33.618Z,1016.02
2017-03-29T05:00:42.582Z,1016
2017-03-29T05:01:23.462Z,1016.02
2017-03-29T05:02:04.342Z,1015.94
2017-03-29T05:02:45.228Z,1015.92
2017-03-29T05:03:26.129Z,1015.93
2017-03-29T05:04:07.011Z,1015.89
2017-03-29T05:04:47.896Z,1015.91
2017-03-29T05:05:28.779Z,1015.93
2017-03-29T05:06:09.662Z,1015.93
2017-03-29T05:06:50.548Z,1015.92
2017-03-29T05:07:31.436Z,1015.91
2017-03-29T05:08:12.340Z,1015.9
2017-03-29T05:08:53.180Z,1015.88
2017-03-29T05:09:34.088Z,1015.88
2017-03-29T05:10:14.976Z,1015.88
2017-03-29T05:10:55.841Z,1015.93
2017-03-29T05:11:36.726Z,1015.94
2017-03-29T05:12:17.621Z,1016.01
2017-03-29T05:12:58.517Z,1016.04
2017-03-29T05:13:39.405Z,1016.03
2017-03-29T05:14:20.298Z,1016.06
2017-03-29T05:15:59.752Z,1016.13
2017-03-29T05:16:40.633Z,1016.21
2017-03-29T05:17:21.524Z,1016.21
2017-03-29T05:18:02.413Z,1016.17
2017-03-29T05:18:43.300Z,1016.15
2017-03-29T05:19:24.180Z,1016.14
2017-03-29T05:20:05.072Z,1016.18
2017-03-29T05:20:45.960Z,1016.19
2017-03-29T05:21:26.851Z,1016.2
2017-03-29T05:22:07.743Z,1016.22
2017-03-29T05:22:48.638Z,1016.16
2017-03-29T05:23:29.511Z,1016.2
2017-03-29T05:24:10.395Z,1016.17
2017-03-29T05:24:51.281Z,1016.14
2017-03-29T05:25:32.173Z,1016.13
2017-03-29T05:26:13.047Z,1016.14
2017-03-29T05:26:53.935Z,1016.18
2017-03-29T05:27:34.821Z,1016.22
2017-03-29T05:28:15.704Z,1016.19
2017-03-29T05:28:56.586Z,1016.17
2017-03-29T05:29:37.540Z,1016.17
2017-03-29T05:30:18.421Z,1016.15
2017-03-29T05:30:59.310Z,1016.19
2017-03-29T05:31:40.207Z,1016.24
2017-03-29T05:32:21.081Z,1016.23
2017-03-29T05:33:01.953Z,1016.23
2017-03-29T05:33:42.839Z,1016.2
2017-03-29T05:34:23.723Z,1016.26
2017-03-29T05:35:04.605Z,1016.32
2017-03-29T05:35:45.487Z,1016.3
2017-03-29T05:36:26.366Z,1016.29
2017-03-29T05:37:07.238Z,1016.31
2017-03-29T05:37:48.122Z,1016.35
2017-03-29T05:38:29.005Z,1016.37
2017-03-29T05:39:09.883Z,1016.35
2017-03-29T05:39:50.766Z,1016.34
2017-03-29T05:40:31.645Z,1016.32
2017-03-29T05:41:12.523Z,1016.33
2017-03-29T05:41:53.414Z,1016.36
2017-03-29T05:42:34.303Z,1016.42
2017-03-29T05:43:15.191Z,1016.35
2017-03-29T05:43:56.070Z,1016.34
2017-03-29T05:44:36.949Z,1016.35
2017-03-29T05:45:17.839Z,1016.33
2017-03-29T05:45:58.725Z,1016.39
2017-03-29T05:46:39.595Z,1016.36
2017-03-29T05:47:20.469Z,1016.35
2017-03-29T05:48:01.359Z,1016.35
2017-03-29T05:48:42.246Z,1016.39
2017-03-29T05:49:23.125Z,1016.32
2017-03-29T05:50:04.011Z,1016.34
2017-03-29T05:50:44.905Z,1016.36
2017-03-29T05:51:25.787Z,1016.37
2017-03-29T05:52:06.668Z,1016.34
2017-03-29T05:52:47.543Z,1016.32
2017-03-29T05:53:28.434Z,1016.35
2017-03-29T05:54:09.325Z,1016.32
2017-03-29T05:54:50.199Z,1016.36
2017-03-29T05:55:31.081Z,1016.3
2017-03-29T05:56:11.968Z,1016.4
2017-03-29T05:56:52.853Z,1016.33
2017-03-29T05:57:33.726Z,1016.3
2017-03-29T05:58:14.612Z,1016.25
2017-03-29T05:58:55.510Z,1016.25
2017-03-29T05:59:36.389Z,1016.31
2017-03-29T06:00:17.261Z,1016.21
2017-03-29T06:00:58.129Z,1016.29
2017-03-29T06:01:39.036Z,1016.22
2017-03-29T06:02:19.929Z,1016.29
2017-03-29T06:03:00.791Z,1016.27
2017-03-29T06:03:41.680Z,1016.26
2017-03-29T06:04:22.578Z,1016.24
2017-03-29T06:05:03.451Z,1016.33
2017-03-29T06:05:44.333Z,1016.33
2017-03-29T06:06:25.217Z,1016.3
2017-03-29T06:07:06.100Z,1016.29
2017-03-29T06:07:46.981Z,1016.32
2017-03-29T06:08:27.868Z,1016.3
2017-03-29T06:09:08.746Z,1016.34
2017-03-29T06:09:49.634Z,1016.35
2017-03-29T06:10:30.520Z,1016.28
2017-03-29T06:11:11.394Z,1016.37
2017-03-29T06:11:52.275Z,1016.33
2017-03-29T06:12:33.163Z,1016.32
2017-03-29T06:13:14.053Z,1016.38
2017-03-29T06:13:54.938Z,1016.35
2017-03-29T06:14:35.824Z,1016.36
2017-03-29T06:15:16.715Z,1016.36
2017-03-29T06:15:57.592Z,1016.34
2017-03-29T06:16:38.467Z,1016.35
2017-03-29T06:17:19.341Z,1016.3
2017-03-29T06:18:00.234Z,1016.34
2017-03-29T06:18:41.118Z,1016.38
2017-03-29T06:19:22.000Z,1016.35
2017-03-29T06:20:02.880Z,1016.32
2017-03-29T06:20:43.764Z,1016.35
2017-03-29T06:21:24.653Z,1016.35
2017-03-29T06:22:05.530Z,1016.33
2017-03-29T06:22:46.413Z,1016.28
2017-03-29T06:23:27.302Z,1016.29
2017-03-29T06:24:08.186Z,1016.32
2017-03-29T06:24:49.059Z,1016.34
2017-03-29T06:25:29.949Z,1016.35
2017-03-29T06:26:10.840Z,1016.33
2017-03-29T06:26:51.727Z,1016.48
2017-03-29T06:27:32.604Z,1016.49
2017-03-29T06:28:13.480Z,1016.46
2017-03-29T06:28:54.371Z,1016.41
2017-03-29T06:29:35.252Z,1016.48
2017-03-29T06:30:16.134Z,1016.58
2017-03-29T06:30:57.019Z,1016.45
2017-03-29T06:31:37.910Z,1016.36
2017-03-29T06:32:18.787Z,1016.49
2017-03-29T06:32:59.667Z,1016.43
2017-03-29T06:33:40.549Z,1016.45
2017-03-29T06:34:21.433Z,1016.48
2017-03-29T06:35:02.317Z,1016.44
2017-03-29T06:35:43.199Z,1016.46
2017-03-29T06:36:24.083Z,1016.48
2017-03-29T06:37:04.968Z,1016.42
2017-03-29T06:37:45.852Z,1016.48
2017-03-29T06:38:26.730Z,1016.44
2017-03-29T06:39:07.644Z,1016.44
2017-03-29T06:39:48.545Z,1016.4
2017-03-29T06:40:29.427Z,1016.48
2017-03-29T06:41:10.311Z,1016.46
2017-03-29T06:41:51.196Z,1016.49
2017-03-29T06:42:32.078Z,1016.47
2017-03-29T06:43:12.965Z,1016.4
2017-03-29T06:43:53.850Z,1016.52
2017-03-29T06:44:34.761Z,1016.52
2017-03-29T06:45:15.642Z,1016.56
2017-03-29T06:45:56.523Z,1016.58
2017-03-29T06:46:37.413Z,1016.6
2017-03-29T06:47:18.291Z,1016.62
2017-03-29T06:47:59.169Z,1016.66
2017-03-29T06:48:40.055Z,1016.61
2017-03-29T06:49:20.931Z,1016.49
2017-03-29T06:50:01.819Z,1016.45
2017-03-29T06:50:42.702Z,1016.42
2017-03-29T06:51:23.587Z,1016.35
2017-03-29T06:52:04.468Z,1016.31
2017-03-29T06:52:45.348Z,1016.36
2017-03-29T06:53:26.227Z,1016.47
2017-03-29T06:54:07.109Z,1016.48
2017-03-29T06:54:47.985Z,1016.42
2017-03-29T06:55:28.864Z,1016.48
2017-03-29T06:56:09.736Z,1016.4
2017-03-29T06:56:50.613Z,1016.44
2017-03-29T06:57:31.491Z,1016.44
2017-03-29T06:58:12.372Z,1016.42
2017-03-29T06:58:53.302Z,1016.4
2017-03-29T06:59:34.188Z,1016.41
2017-03-29T07:00:15.057Z,1016.5
2017-03-29T07:00:55.935Z,1016.48
2017-03-29T07:01:36.812Z,1016.41
2017-03-29T07:02:17.683Z,1016.43
2017-03-29T07:02:58.568Z,1016.41
2017-03-29T07:03:39.454Z,1016.4
2017-03-29T07:04:20.357Z,1016.45
2017-03-29T07:05:01.253Z,1016.43
2017-03-29T07:05:42.081Z,1016.5
2017-03-29T07:06:22.966Z,1016.46
2017-03-29T07:07:03.845Z,1016.43
2017-03-29T07:07:44.734Z,1016.49
2017-03-29T07:08:25.619Z,1016.55
2017-03-29T07:09:06.513Z,1016.49
2017-03-29T07:09:47.414Z,1016.42
2017-03-29T07:10:28.309Z,1016.4
2017-03-29T07:11:09.195Z,1016.43
2017-03-29T07:11:50.074Z,1016.49
2017-03-29T07:12:30.956Z,1016.47
2017-03-29T07:13:11.836Z,1016.48
2017-03-29T07:13:52.717Z,1016.47
2017-03-29T07:14:33.595Z,1016.47
2017-03-29T07:15:14.473Z,1016.44
2017-03-29T07:15:55.357Z,1016.49
2017-03-29T07:16:36.242Z,1016.42
2017-03-29T07:17:17.124Z,1016.5
2017-03-29T07:17:58.007Z,1016.54
2017-03-29T07:18:38.890Z,1016.45
2017-03-29T07:19:19.936Z,1016.49
2017-03-29T07:20:00.816Z,1016.49
2017-03-29T07:20:41.695Z,1016.54
2017-03-29T07:21:22.575Z,1016.47
2017-03-29T07:22:03.455Z,1016.42
2017-03-29T07:22:44.342Z,1016.48
2017-03-29T07:23:25.229Z,1016.55
2017-03-29T07:24:06.110Z,1016.5
2017-03-29T07:24:46.991Z,1016.55
2017-03-29T07:25:27.885Z,1016.58
2017-03-29T07:26:08.770Z,1016.58
2017-03-29T07:26:49.655Z,1016.65
2017-03-29T07:27:30.526Z,1016.46
2017-03-29T07:28:11.411Z,1016.68
2017-03-29T07:28:52.290Z,1016.62
2017-03-29T07:29:33.171Z,1016.6
2017-03-29T07:30:14.047Z,1016.62
2017-03-29T07:30:54.921Z,1016.66
2017-03-29T07:31:35.822Z,1016.61
2017-03-29T07:32:16.683Z,1016.54
2017-03-29T07:32:57.561Z,1016.61
2017-03-29T07:33:38.442Z,1016.69
2017-03-29T07:34:19.348Z,1016.59
2017-03-29T07:35:00.225Z,1016.6
2017-03-29T07:35:41.106Z,1016.61
2017-03-29T07:36:21.980Z,1016.59
2017-03-29T07:37:02.867Z,1016.64
2017-03-29T07:37:43.746Z,1016.48
2017-03-29T07:38:24.625Z,1016.49
2017-03-29T07:39:05.510Z,1016.48
2017-03-29T07:39:46.408Z,1016.6
2017-03-29T07:40:27.325Z,1016.54
2017-03-29T07:41:08.210Z,1016.6
2017-03-29T07:41:49.142Z,1016.56
2017-03-29T07:42:30.025Z,1016.56
2017-03-29T07:43:10.918Z,1016.61
2017-03-29T07:43:51.797Z,1016.62
2017-03-29T07:44:32.676Z,1016.59
2017-03-29T07:45:13.559Z,1016.55
2017-03-29T07:45:54.445Z,1016.51
2017-03-29T07:46:35.330Z,1016.56
2017-03-29T07:47:16.214Z,1016.58
2017-03-29T07:47:57.095Z,1016.5
2017-03-29T07:48:37.970Z,1016.51
2017-03-29T07:49:18.850Z,1016.47
2017-03-29T07:49:59.726Z,1016.45
2017-03-29T07:50:40.602Z,1016.52
2017-03-29T07:51:21.478Z,1016.52
2017-03-29T07:52:02.390Z,1016.54
2017-03-29T07:52:43.261Z,1016.64
2017-03-29T07:53:24.143Z,1016.57
2017-03-29T07:54:05.015Z,1016.54
2017-03-29T07:54:45.888Z,1016.45
2017-03-29T07:55:26.775Z,1016.46
2017-03-29T07:56:07.648Z,1016.46
2017-03-29T07:56:48.521Z,1016.53
2017-03-29T07:57:29.399Z,1016.43
2017-03-29T07:58:10.275Z,1016.45
2017-03-29T07:58:51.165Z,1016.45
2017-03-29T07:59:32.055Z,1016.49
2017-03-29T08:00:12.914Z,1016.55
2017-03-29T08:00:53.788Z,1016.49
2017-03-29T08:01:34.668Z,1016.53
2017-03-29T08:02:15.555Z,1016.49
2017-03-29T08:02:56.435Z,1016.54
2017-03-29T08:03:37.310Z,1016.59
2017-03-29T08:04:18.193Z,1016.57
2017-03-29T08:04:59.077Z,1016.58
2017-03-29T08:05:39.957Z,1016.59
2017-03-29T08:06:20.830Z,1016.6
2017-03-29T08:07:01.697Z,1016.64
2017-03-29T08:07:42.561Z,1016.64
2017-03-29T08:08:23.444Z,1016.61
2017-03-29T08:09:04.327Z,1016.63
2017-03-29T08:09:45.213Z,1016.74
2017-03-29T08:10:26.099Z,1016.67
2017-03-29T08:11:06.983Z,1016.59
2017-03-29T08:11:47.866Z,1016.74
2017-03-29T08:12:28.745Z,1016.67
2017-03-29T08:13:09.649Z,1016.72
2017-03-29T08:13:50.533Z,1016.69
2017-03-29T08:14:31.425Z,1016.65
2017-03-29T08:15:12.308Z,1016.7
2017-03-29T08:15:53.200Z,1016.7
2017-03-29T08:16:34.085Z,1016.76
2017-03-29T08:17:14.969Z,1016.75
2017-03-29T08:17:55.851Z,1016.77
2017-03-29T08:18:36.736Z,1016.83
2017-03-29T08:19:17.630Z,1016.79
2017-03-29T08:19:58.508Z,1016.84
2017-03-29T08:20:39.388Z,1016.85
2017-03-29T08:21:20.301Z,1016.85
2017-03-29T08:22:01.180Z,1016.85
2017-03-29T08:22:42.068Z,1016.88
2017-03-29T08:23:22.953Z,1016.87
2017-03-29T08:24:03.840Z,1016.87
2017-03-29T08:24:44.719Z,1016.94
2017-03-29T08:25:25.591Z,1016.9
2017-03-29T08:26:06.468Z,1016.9
2017-03-29T08:26:47.357Z,1016.9
2017-03-29T08:27:28.274Z,1017
2017-03-29T08:28:09.110Z,1016.96